West Manchester, Ohio
Current Conditions -  °F | °C
As of 12:15 PM on Thursday 30 Oct 2014 (Local Time) from KVES Reporting Station
Overcast Overcast  
Wind Chill:   Ceiling: 3700
Heat Index:   Visibility: 10mi
Dew Point:   Wind: 0mph
Humidity: 57%   Direction: NA
Pressure: 30.15"   Gusts: NA
Location:  39.9°N, 84.63°W
Report Text: KVES 301615Z AUTO 00000KT 10SM OVC037 08/00 A3015 RMK AO2
Loading
Personal Weather Stations






























Interactive Weather Map
Tropical Storm Tracking
New forecast layout! Learn more

10-Day Weather Forecast

Advertisements
Track Severe Weather on mobile